Time;durP1;ratioP1;P1;durP2;ratioP2;P2;SDS_P1;SDS_P2;PMS_P1;PMS_P2;Temp;Humidity;BMP_temperature;BMP_pressure;BME280_temperature;BME280_humidity;BME280_pressure;Samples;Min_cycle;Max_cycle;Signal;HPM_P1;HPM_P2
2021/05/03 00:00:13;;;;;;;8.00;6.40;;;8.00;1.00;;;;;;5053843;28;20551;-77
2021/05/03 00:02:38;;;;;;;7.53;5.87;;;8.10;99.90;;;;;;5054131;28;20259;-77
2021/05/03 00:05:17;;;;;;;9.67;6.20;;;8.10;99.90;;;;;;5053869;28;20260;-83
2021/05/03 00:07:42;;;;;;;8.47;6.33;;;8.10;99.90;;;;;;5053893;28;20184;-77
2021/05/03 00:10:08;;;;;;;7.47;5.90;;;8.00;99.90;;;;;;5053546;28;20626;-81
2021/05/03 00:12:34;;;;;;;8.83;6.10;;;8.20;99.90;;;;;;5054183;28;20626;-81
2021/05/03 00:14:59;;;;;;;11.27;6.63;;;8.20;99.90;;;;;;5053605;28;20214;-82
2021/05/03 00:17:25;;;;;;;8.20;5.90;;;8.30;99.90;;;;;;5052713;28;20189;-78
2021/05/03 00:19:51;;;;;;;9.57;5.60;;;8.10;99.90;;;;;;5053724;28;20225;-81
2021/05/03 00:22:16;;;;;;;7.93;6.07;;;8.00;99.90;;;;;;5054037;28;20200;-80
2021/05/03 00:24:42;;;;;;;9.47;6.00;;;8.00;99.90;;;;;;5051842;28;20226;-82
2021/05/03 00:27:07;;;;;;;7.30;5.87;;;8.00;99.90;;;;;;5053439;28;20177;-77
2021/05/03 00:29:33;;;;;;;8.93;5.97;;;8.10;99.90;;;;;;5052960;28;20172;-82
2021/05/03 00:31:59;;;;;;;7.97;5.93;;;8.00;99.90;;;;;;5053433;28;20578;-77
2021/05/03 00:34:24;;;;;;;7.73;5.67;;;7.80;99.90;;;;;;5053430;28;20657;-79
2021/05/03 00:36:50;;;;;;;9.00;6.30;;;7.80;99.90;;;;;;5053442;28;20169;-82
2021/05/03 00:39:16;;;;;;;7.90;6.30;;;7.70;99.90;;;;;;5053124;28;20196;-80
2021/05/03 00:41:41;;;;;;;8.63;6.13;;;7.60;1.00;;;;;;5053279;28;20215;-80
2021/05/03 00:44:07;;;;;;;8.17;6.03;;;7.60;1.00;;;;;;5053330;28;20175;-77
2021/05/03 00:46:33;;;;;;;8.83;6.23;;;7.60;1.00;;;;;;5053162;28;20176;-78
2021/05/03 00:48:59;;;;;;;8.57;6.37;;;7.60;1.00;;;;;;5053215;28;20256;-77
2021/05/03 00:51:24;;;;;;;8.43;6.67;;;7.50;1.00;;;;;;5053214;28;20176;-78
2021/05/03 00:53:50;;;;;;;9.80;6.30;;;7.40;1.00;;;;;;5052950;28;20173;-79
2021/05/03 00:56:15;;;;;;;11.07;5.83;;;7.20;1.00;;;;;;5053395;28;20263;-80
2021/05/03 00:58:41;;;;;;;9.47;6.30;;;7.10;1.00;;;;;;5053148;28;20180;-80
2021/05/03 01:01:07;;;;;;;9.13;6.23;;;6.90;1.00;;;;;;5052903;28;20197;-81
2021/05/03 01:03:33;;;;;;;9.40;6.13;;;6.90;1.00;;;;;;5053298;28;20165;-78
2021/05/03 01:05:58;;;;;;;7.63;5.53;;;7.00;1.00;;;;;;5052749;28;20274;-80
2021/05/03 01:08:24;;;;;;;7.37;5.70;;;7.10;1.00;;;;;;5052643;28;20172;-79
2021/05/03 01:10:50;;;;;;;10.07;6.27;;;7.20;1.00;;;;;;5052824;28;20204;-79
2021/05/03 01:13:16;;;;;;;7.70;5.20;;;7.30;1.00;;;;;;5053104;28;20248;-77
2021/05/03 01:15:41;;;;;;;8.53;5.43;;;7.00;1.00;;;;;;5052987;28;20248;-82
2021/05/03 01:18:07;;;;;;;7.80;5.53;;;6.80;1.00;;;;;;5052684;28;20192;-81
2021/05/03 01:20:36;;;;;;;6.97;5.37;;;6.80;1.00;;;;;;5052748;28;20197;-77
2021/05/03 01:23:05;;;;;;;7.63;6.20;;;6.80;1.00;;;;;;5052423;28;20224;-80
2021/05/03 01:25:34;;;;;;;9.03;5.70;;;6.90;1.00;;;;;;5052927;28;20180;-80
2021/05/03 01:28:01;;;;;;;7.80;5.43;;;6.90;1.00;;;;;;5052817;28;20173;-80
2021/05/03 01:30:32;;;;;;;8.57;5.43;;;6.90;1.00;;;;;;5052860;28;20244;-80
2021/05/03 01:32:58;;;;;;;7.13;5.27;;;7.00;1.00;;;;;;5052510;28;20177;-81
2021/05/03 01:35:25;;;;;;;6.83;5.50;;;6.90;1.00;;;;;;5052916;28;20161;-81
2021/05/03 01:37:52;;;;;;;8.50;5.67;;;7.10;1.00;;;;;;5052479;28;20165;-80
2021/05/03 01:40:19;;;;;;;7.60;5.40;;;7.00;1.00;;;;;;5055071;28;20232;-77
2021/05/03 01:42:45;;;;;;;6.47;5.20;;;6.90;1.00;;;;;;5056693;28;20207;-78
2021/05/03 01:45:12;;;;;;;10.07;6.10;;;6.90;1.00;;;;;;5056746;28;20196;-76
2021/05/03 01:47:39;;;;;;;7.73;6.30;;;6.80;1.00;;;;;;5056662;28;20169;-81
2021/05/03 01:50:06;;;;;;;8.27;5.53;;;6.70;1.00;;;;;;5056605;28;20259;-79
2021/05/03 01:52:34;;;;;;;8.77;6.13;;;6.90;1.00;;;;;;5056317;28;20208;-76
2021/05/03 01:55:00;;;;;;;8.03;6.03;;;7.00;1.00;;;;;;5056602;28;20184;-81
2021/05/03 01:57:25;;;;;;;9.53;5.30;;;6.80;1.00;;;;;;5056544;28;20165;-78
2021/05/03 01:59:53;;;;;;;6.47;5.40;;;6.70;1.00;;;;;;5056568;28;20228;-82
2021/05/03 02:02:19;;;;;;;6.87;5.63;;;6.80;1.00;;;;;;5056359;28;20161;-80
2021/05/03 02:04:44;;;;;;;7.07;5.27;;;6.80;1.00;;;;;;5056263;28;20176;-79
2021/05/03 02:07:13;;;;;;;8.47;5.40;;;6.90;1.00;;;;;;5056249;28;20520;-81
2021/05/03 02:09:44;;;;;;;7.40;5.40;;;7.00;1.00;;;;;;5056539;28;20172;-79
2021/05/03 02:12:10;;;;;;;9.70;5.20;;;7.00;1.00;;;;;;5056092;28;20175;-79
2021/05/03 02:14:41;;;;;;;10.03;5.87;;;6.90;1.00;;;;;;5056471;28;20169;-77
2021/05/03 02:17:06;;;;;;;8.00;5.40;;;6.80;1.00;;;;;;5055947;28;20522;-78
2021/05/03 02:19:32;;;;;;;7.87;5.77;;;6.70;1.00;;;;;;5055818;28;20218;-78
2021/05/03 02:21:57;;;;;;;8.20;5.40;;;6.50;1.00;;;;;;5056040;28;20181;-79
2021/05/03 02:24:23;;;;;;;6.73;5.17;;;6.40;1.00;;;;;;5055847;28;20203;-78
2021/05/03 02:26:49;;;;;;;7.10;5.53;;;6.40;1.00;;;;;;5056082;28;20543;-77
2021/05/03 02:29:14;;;;;;;6.93;4.93;;;6.40;1.00;;;;;;5055679;28;20191;-81
2021/05/03 02:31:40;;;;;;;6.80;5.10;;;6.40;1.00;;;;;;5056008;28;20660;-78
2021/05/03 02:34:06;;;;;;;8.53;5.23;;;6.30;1.00;;;;;;5055336;28;20185;-76
2021/05/03 02:36:31;;;;;;;8.87;5.40;;;6.40;1.00;;;;;;5055827;28;20249;-79
2021/05/03 02:38:57;;;;;;;8.97;5.50;;;6.40;1.00;;;;;;5055743;28;20165;-81
2021/05/03 02:41:23;;;;;;;8.60;5.37;;;6.50;1.00;;;;;;5055878;28;20216;-81
2021/05/03 02:43:49;;;;;;;7.50;4.70;;;6.50;1.00;;;;;;5055735;28;20638;-81
2021/05/03 02:46:14;;;;;;;6.47;4.93;;;6.40;1.00;;;;;;5055643;28;20208;-84
2021/05/03 02:48:40;;;;;;;7.07;5.50;;;6.50;1.00;;;;;;5055204;28;20200;-81
2021/05/03 02:51:06;;;;;;;7.53;5.00;;;6.40;1.00;;;;;;5054875;28;20169;-81
2021/05/03 02:53:32;;;;;;;7.43;5.63;;;6.30;1.00;;;;;;5055655;28;20173;-82
2021/05/03 02:55:57;;;;;;;7.30;5.13;;;6.40;1.00;;;;;;5055592;28;20169;-81
2021/05/03 02:58:23;;;;;;;8.23;5.57;;;6.30;1.00;;;;;;5055416;28;20190;-81
2021/05/03 03:00:48;;;;;;;8.17;5.73;;;6.30;1.00;;;;;;5055306;28;20223;-81
2021/05/03 03:03:14;;;;;;;6.73;4.93;;;6.30;1.00;;;;;;5054895;28;20200;-82
2021/05/03 03:05:40;;;;;;;9.20;5.57;;;6.20;1.00;;;;;;5055616;28;20522;-79
2021/05/03 03:08:05;;;;;;;7.17;5.73;;;6.20;1.00;;;;;;5054994;28;20173;-80
2021/05/03 03:10:32;;;;;;;7.30;5.40;;;6.10;1.00;;;;;;5055187;28;20173;-82
2021/05/03 03:13:00;;;;;;;8.20;5.53;;;6.10;1.00;;;;;;5055120;28;20248;-81
2021/05/03 03:15:29;;;;;;;7.63;5.50;;;6.10;1.00;;;;;;5053675;28;20181;-82
2021/05/03 03:17:55;;;;;;;8.97;5.77;;;6.00;1.00;;;;;;5053314;28;20279;-78
2021/05/03 03:20:21;;;;;;;12.77;5.80;;;6.10;1.00;;;;;;5054829;28;20287;-77
2021/05/03 03:22:47;;;;;;;7.80;5.97;;;6.00;1.00;;;;;;5053736;28;20706;-81
2021/05/03 03:25:15;;;;;;;6.07;5.47;;;6.20;1.00;;;;;;5054409;28;20197;-79
2021/05/03 03:27:40;;;;;;;7.57;5.90;;;6.20;1.00;;;;;;5054788;28;20632;-80
2021/05/03 03:30:08;;;;;;;8.47;5.40;;;6.00;1.00;;;;;;5054697;28;20226;-81
2021/05/03 03:32:34;;;;;;;6.83;5.07;;;6.00;1.00;;;;;;5054247;28;20269;-80
2021/05/03 03:35:01;;;;;;;7.90;5.00;;;6.00;1.00;;;;;;5054602;28;20612;-82
2021/05/03 03:37:26;;;;;;;7.93;5.30;;;5.90;1.00;;;;;;5054537;28;20173;-84
2021/05/03 03:39:52;;;;;;;8.67;5.50;;;5.90;1.00;;;;;;5053092;28;20215;-82
2021/05/03 03:42:18;;;;;;;7.83;5.23;;;5.90;1.00;;;;;;5054709;28;20181;-80
2021/05/03 03:44:43;;;;;;;12.20;5.73;;;5.90;1.00;;;;;;5054417;28;20169;-77
2021/05/03 03:47:09;;;;;;;8.17;6.03;;;5.90;1.00;;;;;;5054009;28;20165;-81
2021/05/03 03:49:34;;;;;;;7.40;6.03;;;6.10;1.00;;;;;;5054278;28;20543;-81
2021/05/03 03:52:00;;;;;;;7.30;5.67;;;6.10;1.00;;;;;;5053086;28;20633;-79
2021/05/03 03:54:26;;;;;;;11.00;6.17;;;6.10;1.00;;;;;;5055797;28;20179;-83
2021/05/03 03:56:51;;;;;;;9.97;5.40;;;6.30;1.00;;;;;;5054859;28;20173;-83
2021/05/03 03:59:17;;;;;;;9.63;6.60;;;6.40;1.00;;;;;;5054070;28;20668;-82
2021/05/03 04:01:44;;;;;;;11.43;6.73;;;6.50;1.00;;;;;;5054175;28;20288;-83
2021/05/03 04:04:22;;;;;;;9.30;5.80;;;6.40;1.00;;;;;;5053564;28;20167;-81
2021/05/03 04:27:51;;;;;;;10.67;6.33;;;6.00;1.00;;;;;;5053713;28;20181;-83
2021/05/03 04:30:18;;;;;;;8.00;5.97;;;6.20;1.00;;;;;;5053172;28;20527;-82
2021/05/03 04:32:43;;;;;;;9.73;5.80;;;6.20;1.00;;;;;;5053620;28;20192;-80
2021/05/03 04:35:09;;;;;;;8.40;5.57;;;6.10;1.00;;;;;;5052248;28;20184;-80
2021/05/03 04:37:35;;;;;;;7.43;6.03;;;6.00;1.00;;;;;;5053667;28;20181;-82
2021/05/03 04:40:01;;;;;;;9.23;6.07;;;5.90;1.00;;;;;;5053340;28;20193;-80
2021/05/03 04:42:27;;;;;;;9.20;6.03;;;6.00;1.00;;;;;;5053415;28;20582;-81
2021/05/03 04:44:53;;;;;;;11.07;6.37;;;5.90;1.00;;;;;;5053241;28;20172;-80
2021/05/03 04:47:18;;;;;;;10.03;5.57;;;6.00;1.00;;;;;;5053066;28;20173;-82
2021/05/03 04:49:44;;;;;;;8.40;5.60;;;6.00;1.00;;;;;;5053440;28;20579;-82
2021/05/03 04:52:09;;;;;;;8.70;6.10;;;5.90;1.00;;;;;;5053442;28;20208;-80
2021/05/03 04:54:35;;;;;;;9.20;6.00;;;6.00;1.00;;;;;;5053992;28;20679;-79
2021/05/03 04:57:01;;;;;;;11.17;6.20;;;6.00;1.00;;;;;;5053040;28;20173;-82
2021/05/03 04:59:26;;;;;;;10.07;6.47;;;6.10;1.00;;;;;;5052660;28;20177;-82
2021/05/03 05:01:52;;;;;;;14.97;6.83;;;6.00;1.00;;;;;;5052751;28;20208;-81
2021/05/03 05:04:18;;;;;;;14.97;7.00;;;6.00;1.00;;;;;;5052960;28;20181;-82
2021/05/03 05:06:43;;;;;;;15.93;7.37;;;5.90;1.00;;;;;;5052496;28;20630;-81
2021/05/03 05:09:09;;;;;;;15.73;6.70;;;5.90;1.00;;;;;;5052892;28;20165;-80
2021/05/03 05:11:35;;;;;;;18.40;7.07;;;5.90;1.00;;;;;;5052573;28;20212;-81
2021/05/03 05:14:01;;;;;;;16.00;7.50;;;6.10;1.00;;;;;;5051250;28;20180;-80
2021/05/03 05:16:28;;;;;;;15.87;7.03;;;6.20;1.00;;;;;;5052322;28;20219;-78
2021/05/03 05:18:53;;;;;;;14.73;7.97;;;6.20;1.00;;;;;;5052176;28;20650;-82
2021/05/03 05:21:20;;;;;;;17.23;8.03;;;6.20;1.00;;;;;;5052236;28;20212;-81
2021/05/03 05:23:48;;;;;;;11.90;8.57;;;6.30;1.00;;;;;;5052969;28;20169;-81
2021/05/03 05:26:14;;;;;;;13.07;7.97;;;6.20;1.00;;;;;;5052881;28;20177;-77
2021/05/03 05:28:39;;;;;;;11.67;8.33;;;6.20;1.00;;;;;;5052288;28;20184;-79
2021/05/03 05:31:05;;;;;;;14.17;7.90;;;6.10;1.00;;;;;;5052499;28;20176;-80
2021/05/03 05:33:30;;;;;;;13.80;8.23;;;6.20;1.00;;;;;;5052522;28;20192;-77
2021/05/03 05:35:56;;;;;;;14.77;8.20;;;6.30;1.00;;;;;;5052320;28;20213;-83
2021/05/03 05:38:22;;;;;;;15.47;8.50;;;6.40;1.00;;;;;;5052339;28;20173;-81
2021/05/03 05:40:47;;;;;;;13.60;7.90;;;6.50;1.00;;;;;;5052480;28;20208;-77
2021/05/03 05:43:14;;;;;;;12.50;8.57;;;6.60;1.00;;;;;;5052646;28;20180;-82
2021/05/03 05:45:40;;;;;;;20.23;9.17;;;6.60;1.00;;;;;;5053355;28;20208;-77
2021/05/03 05:48:06;;;;;;;21.00;8.33;;;6.70;1.00;;;;;;5057805;28;20173;-77
2021/05/03 05:50:32;;;;;;;21.13;9.13;;;6.80;1.00;;;;;;5066672;28;20205;-75
2021/05/03 05:52:57;;;;;;;15.00;9.33;;;7.00;1.00;;;;;;5065074;28;20172;-80
2021/05/03 05:55:24;;;;;;;20.23;9.97;;;7.10;1.00;;;;;;5066608;28;20626;-84
2021/05/03 05:57:56;;;;;;;18.30;9.20;;;7.20;1.00;;;;;;5064668;28;20231;-79
2021/05/03 06:00:23;;;;;;;19.23;9.23;;;7.20;1.00;;;;;;5064464;28;20200;-78
2021/05/03 06:02:58;;;;;;;18.67;10.87;;;7.10;1.00;;;;;;5063422;28;20165;-80
2021/05/03 06:05:27;;;;;;;20.60;10.73;;;7.10;1.00;;;;;;5058049;28;20180;-81
2021/05/03 06:07:59;;;;;;;15.33;10.97;;;7.20;1.00;;;;;;5060337;28;20177;-79
2021/05/03 06:10:25;;;;;;;17.40;10.80;;;7.50;1.00;;;;;;5054386;28;20210;-80
2021/05/03 06:12:57;;;;;;;20.53;11.93;;;7.60;1.00;;;;;;5052968;28;20157;-78
2021/05/03 06:15:23;;;;;;;20.47;11.77;;;7.60;1.00;;;;;;5054627;28;20164;-84
2021/05/03 06:17:51;;;;;;;18.20;11.37;;;7.70;1.00;;;;;;5063535;28;20192;-91
2021/05/03 06:20:17;;;;;;;20.27;13.40;;;7.70;1.00;;;;;;5072642;28;20192;-81
2021/05/03 06:22:44;;;;;;;18.40;11.20;;;7.80;1.00;;;;;;5072094;28;20593;-81
2021/05/03 06:25:10;;;;;;;15.03;12.27;;;7.80;1.00;;;;;;5070823;28;20530;-84
2021/05/03 06:27:36;;;;;;;19.90;12.07;;;7.90;1.00;;;;;;5074356;28;20172;-82
2021/05/03 06:30:03;;;;;;;15.97;12.63;;;7.90;1.00;;;;;;5075697;28;20176;-86
2021/05/03 06:32:29;;;;;;;17.23;12.37;;;8.00;1.00;;;;;;5075587;28;20264;-85
2021/05/03 06:34:55;;;;;;;16.03;11.83;;;8.00;1.00;;;;;;5075654;28;20243;-82
2021/05/03 06:37:21;;;;;;;17.10;13.30;;;8.00;1.00;;;;;;5075250;28;20164;-82
2021/05/03 06:39:47;;;;;;;15.00;13.23;;;8.00;1.00;;;;;;5075513;28;20677;-83
2021/05/03 06:42:13;;;;;;;15.27;13.27;;;8.10;1.00;;;;;;5075796;28;20662;-78
2021/05/03 06:44:38;;;;;;;19.70;13.50;;;8.20;1.00;;;;;;5075726;28;20161;-88
2021/05/03 06:47:04;;;;;;;17.03;13.40;;;8.20;1.00;;;;;;5072506;28;20195;-84
2021/05/03 06:49:30;;;;;;;14.63;12.30;;;8.40;1.00;;;;;;5081700;28;20172;-78
2021/05/03 06:51:56;;;;;;;16.37;13.57;;;8.60;1.00;;;;;;5068855;28;20176;-77
2021/05/03 06:54:22;;;;;;;17.03;13.47;;;8.70;1.00;;;;;;5069758;28;20620;-77
2021/05/03 06:56:48;;;;;;;18.93;13.87;;;8.80;1.00;;;;;;5083654;28;20278;-85
2021/05/03 06:59:14;;;;;;;16.30;13.47;;;8.90;1.00;;;;;;5070598;28;20161;-84
2021/05/03 07:01:40;;;;;;;18.77;14.97;;;9.00;1.00;;;;;;5075142;28;20249;-88
2021/05/03 07:04:06;;;;;;;19.30;14.83;;;9.20;1.00;;;;;;5074932;28;20786;-77
2021/05/03 07:06:31;;;;;;;19.97;14.83;;;9.30;1.00;;;;;;5075370;28;20182;-85
2021/05/03 07:08:58;;;;;;;20.10;15.50;;;9.20;1.00;;;;;;5075122;28;20171;-86
2021/05/03 07:11:28;;;;;;;24.53;16.37;;;9.30;1.00;;;;;;5075444;28;20247;-82
2021/05/03 07:13:54;;;;;;;18.23;15.07;;;9.50;1.00;;;;;;5079307;28;20620;-79
2021/05/03 07:16:20;;;;;;;20.63;16.57;;;9.60;1.00;;;;;;5082129;28;20176;-82
2021/05/03 07:18:46;;;;;;;19.90;15.50;;;9.70;1.00;;;;;;5075440;28;20286;-88
2021/05/03 07:21:12;;;;;;;22.33;17.77;;;9.80;1.00;;;;;;5075687;28;20257;-84
2021/05/03 07:23:41;;;;;;;24.33;17.30;;;9.90;1.00;;;;;;5076033;28;20165;-79
2021/05/03 07:26:09;;;;;;;20.20;17.73;;;9.90;1.00;;;;;;5078091;28;20176;-88
2021/05/03 07:28:35;;;;;;;21.83;18.00;;;9.90;1.00;;;;;;5081742;28;20169;-83
2021/05/03 07:31:00;;;;;;;22.83;19.27;;;10.00;1.00;;;;;;5089811;28;20178;-79
2021/05/03 07:33:27;;;;;;;21.00;18.50;;;10.10;1.00;;;;;;5093471;28;20218;-82
2021/05/03 07:35:53;;;;;;;23.13;18.70;;;10.10;1.00;;;;;;5078065;28;20180;-76
2021/05/03 07:38:20;;;;;;;20.93;17.77;;;10.10;1.00;;;;;;5075537;28;20172;-82
2021/05/03 07:40:47;;;;;;;22.63;19.47;;;10.00;1.00;;;;;;5075223;28;20200;-84
2021/05/03 07:43:13;;;;;;;26.33;18.73;;;10.10;1.00;;;;;;5076329;28;20211;-78
2021/05/03 07:45:38;;;;;;;29.20;20.60;;;10.20;1.00;;;;;;5076202;28;20168;-83
2021/05/03 07:48:04;;;;;;;22.17;18.90;;;10.10;1.00;;;;;;5076019;28;20259;-88
2021/05/03 07:50:30;;;;;;;21.60;18.77;;;10.30;1.00;;;;;;5075578;28;20164;-84
2021/05/03 07:52:57;;;;;;;23.50;19.13;;;10.40;1.00;;;;;;5075065;28;20253;-85
2021/05/03 07:55:23;;;;;;;22.03;17.40;;;10.50;1.00;;;;;;5075153;28;20175;-88
2021/05/03 07:57:50;;;;;;;20.70;17.10;;;10.60;1.00;;;;;;5067527;28;20184;-80
2021/05/03 08:00:16;;;;;;;20.07;17.27;;;10.60;1.00;;;;;;5070106;28;20659;-80
2021/05/03 08:02:41;;;;;;;19.93;16.97;;;10.60;1.00;;;;;;5072697;28;20247;-84
2021/05/03 08:05:07;;;;;;;20.83;17.63;;;10.60;1.00;;;;;;5077824;28;20624;-89
2021/05/03 08:07:33;;;;;;;22.33;17.80;;;10.50;1.00;;;;;;5078120;28;20183;-80
2021/05/03 08:10:00;;;;;;;20.57;15.70;;;10.60;1.00;;;;;;5072594;28;20183;-79
2021/05/03 08:12:25;;;;;;;19.17;16.33;;;10.80;1.00;;;;;;5073047;28;20198;-77
2021/05/03 08:14:53;;;;;;;17.80;15.90;;;11.00;1.00;;;;;;5072756;28;20168;-78
2021/05/03 08:17:19;;;;;;;18.50;15.97;;;11.20;1.00;;;;;;5073153;28;20529;-86
2021/05/03 08:19:46;;;;;;;17.97;15.40;;;11.30;99.90;;;;;;5072550;28;20395;-88
2021/05/03 08:22:13;;;;;;;18.03;15.17;;;11.30;99.90;;;;;;5072568;28;20263;-83
2021/05/03 08:24:39;;;;;;;19.97;16.00;;;11.40;99.90;;;;;;5072153;28;20176;-85
2021/05/03 08:27:06;;;;;;;17.70;14.47;;;11.60;99.90;;;;;;5072023;28;20226;-82
2021/05/03 08:29:32;;;;;;;16.77;14.97;;;11.80;99.90;;;;;;5072785;28;20169;-76
2021/05/03 08:31:59;;;;;;;15.20;13.50;;;11.80;1.00;;;;;;5072983;28;20173;-86
2021/05/03 08:34:25;;;;;;;16.27;13.67;;;12.10;26.30;;;;;;5072468;28;20196;-83
2021/05/03 08:36:53;;;;;;;16.97;13.50;;;12.10;15.10;;;;;;5072234;28;20177;-82
2021/05/03 08:39:21;;;;;;;15.57;13.27;;;12.20;1.00;;;;;;5072724;28;20175;-77
2021/05/03 08:41:47;;;;;;;15.90;14.20;;;12.30;1.00;;;;;;5072269;28;20256;-83
2021/05/03 08:44:13;;;;;;;15.13;13.53;;;12.20;99.90;;;;;;5072689;28;20251;-80
2021/05/03 08:46:43;;;;;;;13.40;11.70;;;12.20;1.00;;;;;;5072551;28;20237;-86
2021/05/03 08:52:28;;;;;;;14.20;12.03;;;12.00;1.00;;;;;;5072960;28;20313;-85
2021/05/03 08:54:39;;;;;;;13.97;11.43;;;12.00;1.00;;;;;;5068365;28;20365;-78
2021/05/03 08:57:06;;;;;;;12.57;10.53;;;12.20;99.90;;;;;;5072571;28;20192;-87
2021/05/03 08:59:35;;;;;;;12.13;10.47;;;12.20;1.00;;;;;;5072058;28;20211;-87
2021/05/03 09:02:01;;;;;;;12.47;10.40;;;12.10;1.00;;;;;;5072499;28;20218;-84
2021/05/03 09:04:27;;;;;;;12.43;10.93;;;12.00;99.90;;;;;;5072407;28;20172;-78
2021/05/03 09:07:14;;;;;;;12.37;10.83;;;12.10;1.00;;;;;;5083688;28;20624;-88
2021/05/03 09:09:44;;;;;;;12.37;11.03;;;12.00;99.90;;;;;;5072815;28;20251;-89
2021/05/03 09:12:12;;;;;;;10.77;9.67;;;12.20;48.30;;;;;;5072791;28;20173;-88
2021/05/03 09:14:47;;;;;;;13.20;9.67;;;12.40;99.90;;;;;;5071954;28;20624;-80
2021/05/03 09:17:30;;;;;;;12.27;10.27;;;12.40;99.90;;;;;;5072413;28;20187;-79
2021/05/03 09:19:58;;;;;;;11.73;9.90;;;12.50;99.90;;;;;;5072364;28;20205;-80
2021/05/03 09:22:41;;;;;;;12.60;9.97;;;12.50;1.00;;;;;;5072328;28;20229;-89
2021/05/03 09:25:35;;;;;;;13.17;10.00;;;12.50;1.00;;;;;;5071542;28;20265;-80
2021/05/03 09:28:12;;;;;;;11.83;10.27;;;12.60;99.90;;;;;;5071513;28;20188;-87
2021/05/03 09:30:42;;;;;;;13.70;10.60;;;12.60;1.00;;;;;;5072302;28;20168;-82
2021/05/03 09:33:17;;;;;;;13.10;10.60;;;12.80;99.90;;;;;;5072201;28;20215;-86
2021/05/03 09:35:54;;;;;;;10.20;8.63;;;12.90;99.90;;;;;;5072090;28;20187;-84
2021/05/03 09:38:43;;;;;;;10.17;7.63;;;12.90;1.00;;;;;;5072751;28;20176;-85
2021/05/03 09:41:10;;;;;;;10.23;8.03;;;13.10;99.90;;;;;;5072355;28;20196;-86
2021/05/03 09:44:02;;;;;;;8.73;7.40;;;13.00;99.90;;;;;;5072339;28;20164;-86
2021/05/03 09:46:36;;;;;;;9.13;7.63;;;13.00;99.90;;;;;;5071832;28;20168;-85
2021/05/03 09:49:10;;;;;;;9.73;8.03;;;13.00;99.90;;;;;;5071997;28;20171;-85
2021/05/03 09:51:42;;;;;;;7.50;6.67;;;12.80;99.90;;;;;;5072044;28;20190;-83
2021/05/03 09:54:14;;;;;;;7.10;6.23;;;12.80;80.80;;;;;;5072001;28;20199;-81
2021/05/03 09:56:51;;;;;;;9.20;6.60;;;12.90;17.00;;;;;;5071783;28;20172;-85
2021/05/03 09:59:34;;;;;;;8.07;7.17;;;13.00;18.90;;;;;;5071843;28;20172;-84
2021/05/03 10:02:34;;;;;;;7.80;7.00;;;13.10;25.10;;;;;;5073456;28;20203;-80
2021/05/03 10:05:16;;;;;;;10.10;7.00;;;13.30;36.50;;;;;;5077013;28;20712;-83
2021/05/03 10:07:51;;;;;;;7.93;6.50;;;13.30;1.00;;;;;;5080631;28;20479;-80
2021/05/03 10:10:19;;;;;;;10.00;7.13;;;13.20;1.00;;;;;;5075541;28;20159;-86
2021/05/03 10:12:45;;;;;;;7.87;6.23;;;13.20;46.10;;;;;;5075161;28;20241;-88
2021/05/03 10:15:17;;;;;;;9.93;6.70;;;13.30;1.00;;;;;;5075296;28;20255;-88
2021/05/03 10:17:44;;;;;;;8.47;6.23;;;13.60;1.00;;;;;;5072447;28;20614;-82
2021/05/03 10:20:13;;;;;;;8.83;6.87;;;13.70;1.00;;;;;;5074510;28;20200;-86
2021/05/03 10:22:38;;;;;;;9.73;7.70;;;13.90;1.00;;;;;;5074973;28;20247;-87
2021/05/03 10:25:18;;;;;;;7.53;6.77;;;14.00;1.00;;;;;;5073710;28;20520;-83
2021/05/03 10:27:48;;;;;;;7.83;7.03;;;13.90;1.00;;;;;;5073791;28;20207;-76
2021/05/03 10:30:25;;;;;;;9.43;7.87;;;13.50;1.00;;;;;;5074240;28;20180;-83
2021/05/03 10:32:58;;;;;;;8.73;7.40;;;13.60;91.20;;;;;;5074125;28;20187;-83
2021/05/03 10:35:26;;;;;;;8.50;7.53;;;13.70;9.80;;;;;;5074089;28;20184;-85
2021/05/03 10:37:53;;;;;;;7.50;6.70;;;13.90;7.70;;;;;;5074351;28;20625;-83
2021/05/03 10:40:19;;;;;;;8.77;6.83;;;14.10;1.00;;;;;;5074668;28;20196;-86
2021/05/03 10:43:07;;;;;;;8.60;7.40;;;14.40;1.00;;;;;;5074349;28;20409;-85
2021/05/03 10:46:14;;;;;;;7.83;7.00;;;14.60;1.00;;;;;;5074496;28;20164;-85
2021/05/03 10:51:35;;;;;;;10.00;5.73;;;14.60;1.00;;;;;;5074618;28;20170;-83
2021/05/03 10:54:31;;;;;;;8.93;5.87;;;14.60;1.00;;;;;;5074087;28;20255;-86
2021/05/03 10:56:59;;;;;;;9.90;6.17;;;14.60;1.00;;;;;;5074432;28;20236;-84
2021/05/03 10:59:25;;;;;;;7.40;5.83;;;14.30;1.00;;;;;;5069434;28;20173;-86
2021/05/03 11:02:05;;;;;;;6.77;6.07;;;14.40;1.00;;;;;;5054343;28;20212;-85
2021/05/03 11:04:30;;;;;;;7.13;6.13;;;14.30;1.00;;;;;;5054908;28;20172;-87
2021/05/03 11:06:56;;;;;;;7.30;5.80;;;14.20;1.00;;;;;;5085667;28;20157;-88
2021/05/03 11:09:28;;;;;;;8.20;5.93;;;14.30;1.00;;;;;;5074144;28;20176;-87
2021/05/03 11:12:12;;;;;;;8.40;5.80;;;14.50;1.00;;;;;;5071686;28;20646;-86
2021/05/03 11:14:41;;;;;;;11.43;8.80;;;14.80;1.00;;;;;;5072994;28;20190;-80
2021/05/03 11:17:14;;;;;;;13.97;10.20;;;15.10;1.00;;;;;;5073708;28;20180;-82
2021/05/03 11:22:22;;;;;;;9.27;7.27;;;15.40;1.00;;;;;;5074876;28;20635;-86
2021/05/03 11:24:55;;;;;;;8.77;6.70;;;15.60;1.00;;;;;;5077097;28;20723;-82
2021/05/03 11:33:11;;;;;;;10.37;7.33;;;15.60;1.00;;;;;;5073992;28;20192;-78
2021/05/03 11:35:42;;;;;;;8.10;6.33;;;15.60;1.00;;;;;;5074359;28;20176;-88
2021/05/03 11:38:49;;;;;;;8.33;6.73;;;15.40;1.00;;;;;;5074871;28;20609;-85
2021/05/03 11:46:10;;;;;;;7.77;6.73;;;14.70;1.00;;;;;;5086148;28;20167;-86
2021/05/03 11:48:36;;;;;;;7.20;6.10;;;14.70;1.00;;;;;;5080604;28;20222;-91
2021/05/03 11:51:06;;;;;;;7.97;6.40;;;14.80;1.00;;;;;;5075877;28;20180;-82
2021/05/03 11:53:37;;;;;;;8.40;6.67;;;14.80;1.00;;;;;;5076886;28;20169;-89
2021/05/03 11:56:19;;;;;;;8.07;6.83;;;14.60;1.00;;;;;;5081901;28;20245;-89
2021/05/03 11:58:53;;;;;;;7.87;7.00;;;14.80;1.00;;;;;;5064661;28;20185;-84
2021/05/03 12:01:21;;;;;;;7.17;6.43;;;15.10;1.00;;;;;;5074893;28;20568;-75
2021/05/03 12:03:48;;;;;;;7.57;6.33;;;15.10;1.00;;;;;;5089093;28;20300;-81
2021/05/03 12:06:36;;;;;;;8.97;6.37;;;15.20;1.00;;;;;;5098615;28;20584;-79
2021/05/03 12:09:13;;;;;;;5.97;5.30;;;15.10;1.00;;;;;;5087399;28;20160;-80
2021/05/03 12:11:58;;;;;;;9.07;5.90;;;15.20;1.00;;;;;;5086681;28;20164;-77
2021/05/03 12:18:02;;;;;;;11.30;6.50;;;15.20;1.00;;;;;;5082083;28;20690;-84
2021/05/03 12:20:40;;;;;;;7.80;7.00;;;15.10;1.00;;;;;;5073123;28;20183;-85
2021/05/03 12:26:27;;;;;;;8.27;5.97;;;15.20;1.00;;;;;;5074052;28;20179;-87
2021/05/03 12:28:53;;;;;;;7.10;6.17;;;15.50;1.00;;;;;;5073069;28;20177;-84
2021/05/03 12:31:19;;;;;;;8.40;5.73;;;15.60;1.00;;;;;;5072058;28;20604;-78
2021/05/03 12:33:44;;;;;;;7.67;6.43;;;15.50;1.00;;;;;;5071652;28;20180;-82
2021/05/03 12:36:12;;;;;;;7.50;5.87;;;15.60;1.00;;;;;;5071759;28;20652;-81
2021/05/03 12:38:38;;;;;;;7.30;6.17;;;15.40;1.00;;;;;;5071561;28;20169;-83
2021/05/03 12:41:05;;;;;;;7.10;6.00;;;15.10;1.00;;;;;;5070831;28;20566;-84
2021/05/03 12:43:41;;;;;;;6.97;5.73;;;15.10;1.00;;;;;;5071873;28;20168;-83
2021/05/03 12:46:11;;;;;;;9.00;5.90;;;15.00;1.00;;;;;;5071777;28;20176;-81
2021/05/03 12:51:33;;;;;;;8.47;5.87;;;15.40;1.00;;;;;;5071665;28;20267;-80
2021/05/03 13:02:30;;;;;;;8.03;5.73;;;15.70;1.00;;;;;;5051682;28;20215;-84
2021/05/03 13:05:12;;;;;;;5.97;5.23;;;15.80;1.00;;;;;;5057308;28;20260;-83
2021/05/03 13:07:55;;;;;;;5.73;5.13;;;15.70;1.00;;;;;;5077502;28;20180;-83
2021/05/03 13:29:58;;;;;;;8.50;4.67;;;16.10;1.00;;;;;;5071738;28;20227;-81
2021/05/03 13:32:29;;;;;;;6.87;4.87;;;16.40;1.00;;;;;;5071927;28;20184;-81
2021/05/03 13:34:55;;;;;;;6.93;5.30;;;16.40;1.00;;;;;;5071087;28;20197;-82
2021/05/03 13:37:22;;;;;;;8.27;5.10;;;16.00;1.00;;;;;;5074013;28;20168;-81
2021/05/03 13:39:48;;;;;;;8.57;5.10;;;15.80;1.00;;;;;;5075600;28;20171;-81
2021/05/03 13:42:15;;;;;;;9.73;5.07;;;16.00;1.00;;;;;;5074992;28;20348;-83
2021/05/03 13:44:42;;;;;;;6.53;4.20;;;16.00;1.00;;;;;;5073998;28;20178;-82
2021/05/03 13:47:09;;;;;;;6.73;4.47;;;16.10;1.00;;;;;;5075155;28;20210;-81
2021/05/03 13:49:35;;;;;;;13.80;5.40;;;16.10;1.00;;;;;;5075006;28;20180;-81
2021/05/03 13:52:02;;;;;;;8.70;5.07;;;16.20;1.00;;;;;;5074979;28;20214;-82
2021/05/03 13:54:29;;;;;;;6.40;4.87;;;16.20;1.00;;;;;;5075524;28;20234;-81
2021/05/03 13:57:06;;;;;;;5.87;4.80;;;16.30;1.00;;;;;;5074973;28;20259;-82
2021/05/03 13:59:32;;;;;;;7.23;5.47;;;15.90;1.00;;;;;;5075174;28;20222;-79
2021/05/03 14:01:59;;;;;;;6.73;5.13;;;15.90;1.00;;;;;;5074838;28;20211;-83
2021/05/03 14:04:25;;;;;;;7.23;4.87;;;15.90;1.00;;;;;;5073642;28;20669;-77
2021/05/03 14:06:54;;;;;;;7.03;4.93;;;15.90;1.00;;;;;;5074600;28;20184;-79
2021/05/03 14:09:20;;;;;;;6.03;5.20;;;15.80;1.00;;;;;;5074617;28;20180;-80
2021/05/03 14:11:46;;;;;;;6.57;5.10;;;15.80;1.00;;;;;;5074337;28;20178;-78
2021/05/03 14:14:12;;;;;;;7.03;5.30;;;15.70;1.00;;;;;;5073823;28;20196;-77
2021/05/03 14:16:38;;;;;;;11.20;5.07;;;15.60;1.00;;;;;;5074176;28;20210;-81
2021/05/03 14:19:16;;;;;;;7.93;4.27;;;15.70;1.00;;;;;;5074747;28;20250;-79